createdAt,value
2023-03-28T00:01:34.802Z,16.10
2023-03-28T00:04:07.271Z,16.90
2023-03-28T00:06:41.806Z,19.60
2023-03-28T00:09:14.481Z,19.10
2023-03-28T00:11:47.187Z,20.60
2023-03-28T00:14:19.357Z,20.10
2023-03-28T00:16:52.325Z,19.20
2023-03-28T00:19:24.418Z,17.30
2023-03-28T00:21:57.618Z,18.80
2023-03-28T00:24:30.061Z,18.70
2023-03-28T00:27:02.290Z,17.70
2023-03-28T00:29:34.885Z,18.50
2023-03-28T00:32:07.841Z,23.40
2023-03-28T00:34:40.257Z,24.10
2023-03-28T00:37:17.409Z,21.00
2023-03-28T00:39:51.092Z,16.50
2023-03-28T00:42:25.389Z,16.00
2023-03-28T00:44:59.579Z,15.00
2023-03-28T00:47:45.112Z,14.00
2023-03-28T00:50:21.338Z,12.70
2023-03-28T00:52:59.227Z,15.90
2023-03-28T00:55:37.861Z,13.10
2023-03-28T00:58:12.487Z,13.20
2023-03-28T01:00:46.987Z,12.10
2023-03-28T01:03:22.784Z,10.90
2023-03-28T01:05:56.867Z,12.90
2023-03-28T01:08:39.530Z,13.00
2023-03-28T01:11:13.276Z,13.20
2023-03-28T01:13:49.109Z,11.00
2023-03-28T01:16:23.360Z,13.20
2023-03-28T01:19:02.186Z,10.40
2023-03-28T01:22:17.176Z,14.00
2023-03-28T01:25:31.076Z,10.80
2023-03-28T01:28:09.130Z,19.30
2023-03-28T01:31:05.745Z,16.80
2023-03-28T01:34:19.633Z,16.60
2023-03-28T01:37:06.104Z,15.30
2023-03-28T01:39:58.796Z,13.40
2023-03-28T01:42:42.818Z,12.40
2023-03-28T01:45:20.311Z,12.90
2023-03-28T01:47:59.464Z,11.90
2023-03-28T01:50:37.074Z,13.60
2023-03-28T01:53:18.510Z,13.20
2023-03-28T01:55:55.438Z,15.20
2023-03-28T01:58:32.727Z,12.30
2023-03-28T02:01:16.816Z,11.30
2023-03-28T02:03:52.953Z,11.10
2023-03-28T02:06:39.890Z,12.90
2023-03-28T02:09:19.873Z,12.10
2023-03-28T02:12:17.033Z,11.30
2023-03-28T02:15:18.588Z,11.50
2023-03-28T02:18:16.803Z,9.80
2023-03-28T02:21:16.328Z,10.40
2023-03-28T02:23:57.452Z,12.70
2023-03-28T02:26:48.605Z,54.90
2023-03-28T02:29:33.185Z,29.80
2023-03-28T02:32:36.469Z,12.30
2023-03-28T02:35:10.103Z,10.40
2023-03-28T02:37:54.890Z,11.00
2023-03-28T02:40:42.346Z,9.10
2023-03-28T02:43:43.671Z,14.80
2023-03-28T02:46:29.575Z,23.60
2023-03-28T02:49:24.230Z,18.40
2023-03-28T02:52:09.387Z,17.00
2023-03-28T02:57:42.897Z,25.20
2023-03-28T03:00:19.874Z,19.50
2023-03-28T03:02:54.206Z,30.50
2023-03-28T03:05:26.536Z,17.90
2023-03-28T03:07:58.893Z,33.90
2023-03-28T03:10:31.193Z,19.90
2023-03-28T03:13:03.345Z,21.20
2023-03-28T03:15:35.869Z,13.60
2023-03-28T03:18:23.368Z,13.60
2023-03-28T03:20:55.941Z,16.50
2023-03-28T03:23:28.087Z,12.00
2023-03-28T03:26:04.084Z,10.50
2023-03-28T03:28:46.400Z,9.70
2023-03-28T03:31:19.802Z,12.90
2023-03-28T03:34:03.726Z,11.20
2023-03-28T03:36:40.624Z,15.30
2023-03-28T03:39:12.910Z,16.00
2023-03-28T03:41:45.051Z,16.70
2023-03-28T03:44:17.207Z,16.40
2023-03-28T03:46:49.408Z,16.90
2023-03-28T03:49:21.547Z,18.20
2023-03-28T03:51:53.798Z,20.00
2023-03-28T03:54:26.218Z,15.30
2023-03-28T03:56:58.438Z,14.30
2023-03-28T03:59:30.935Z,20.00
2023-03-28T04:02:03.643Z,21.70
2023-03-28T04:04:49.089Z,16.60
2023-03-28T04:07:29.971Z,13.80
2023-03-28T04:10:02.132Z,21.30
2023-03-28T04:12:40.477Z,22.40
2023-03-28T04:15:13.523Z,20.50
2023-03-28T04:17:45.661Z,16.90
2023-03-28T04:23:10.593Z,11.70
2023-03-28T04:25:43.696Z,17.80
2023-03-28T04:28:19.907Z,26.80
2023-03-28T04:31:04.503Z,18.00
2023-03-28T04:33:45.413Z,17.10
2023-03-28T04:36:19.009Z,16.70
2023-03-28T04:38:58.416Z,19.00
2023-03-28T04:41:50.501Z,26.50
2023-03-28T04:44:34.337Z,22.70
2023-03-28T04:47:13.055Z,22.70
2023-03-28T04:49:45.316Z,22.80
2023-03-28T04:52:18.734Z,25.10
2023-03-28T04:54:52.149Z,24.40
2023-03-28T04:57:28.249Z,26.80
2023-03-28T05:00:17.249Z,19.50
2023-03-28T05:03:18.587Z,17.90
2023-03-28T05:06:00.702Z,17.10
2023-03-28T05:08:32.978Z,13.70
2023-03-28T05:11:05.748Z,23.90
2023-03-28T05:13:38.350Z,35.80
2023-03-28T05:16:16.899Z,50.00
2023-03-28T05:19:15.160Z,67.60
2023-03-28T05:21:57.117Z,35.50
2023-03-28T05:24:29.311Z,30.30
2023-03-28T05:27:01.678Z,70.70
2023-03-28T05:29:33.783Z,508.30
2023-03-28T05:32:06.807Z,75.90
2023-03-28T05:34:39.412Z,49.50
2023-03-28T05:37:11.865Z,147.70
2023-03-28T05:39:50.321Z,113.10
2023-03-28T05:42:24.322Z,94.90
2023-03-28T05:44:56.529Z,91.40
2023-03-28T05:47:29.034Z,74.00
2023-03-28T05:50:02.526Z,24.20
2023-03-28T05:52:35.340Z,14.60
2023-03-28T05:55:11.411Z,17.40
2023-03-28T05:57:44.321Z,25.50
2023-03-28T06:00:19.948Z,16.10
2023-03-28T06:02:54.940Z,19.20
2023-03-28T06:05:36.101Z,18.50
2023-03-28T06:10:42.540Z,16.50
2023-03-28T06:13:35.098Z,14.00
2023-03-28T06:16:10.593Z,11.40
2023-03-28T06:18:42.911Z,14.30
2023-03-28T06:21:15.583Z,20.70
2023-03-28T06:23:51.822Z,14.40
2023-03-28T06:26:31.402Z,16.90
2023-03-28T06:29:03.971Z,21.40
2023-03-28T06:31:47.299Z,26.60
2023-03-28T06:34:19.772Z,29.00
2023-03-28T06:36:57.825Z,27.10
2023-03-28T06:39:32.701Z,27.20
2023-03-28T06:42:05.275Z,37.40
2023-03-28T06:44:44.488Z,21.70
2023-03-28T06:47:24.126Z,18.00
2023-03-28T06:49:56.492Z,20.50
2023-03-28T06:52:43.007Z,33.70
2023-03-28T06:55:16.086Z,28.90
2023-03-28T06:57:48.474Z,25.70
2023-03-28T07:00:31.946Z,18.00
2023-03-28T07:03:23.149Z,14.10
2023-03-28T07:05:55.643Z,19.60
2023-03-28T07:08:28.524Z,45.10
2023-03-28T07:11:01.129Z,26.20
2023-03-28T07:13:34.162Z,24.90
2023-03-28T07:16:15.662Z,36.70
2023-03-28T07:18:48.169Z,27.00
2023-03-28T07:21:27.142Z,13.40
2023-03-28T07:24:01.348Z,25.80
2023-03-28T07:26:40.532Z,16.10
2023-03-28T07:29:14.265Z,19.30
2023-03-28T07:31:46.708Z,19.90
2023-03-28T07:34:20.416Z,14.90
2023-03-28T07:36:53.381Z,12.30
2023-03-28T07:39:43.835Z,13.90
2023-03-28T07:42:19.829Z,12.40
2023-03-28T07:44:52.606Z,12.20
2023-03-28T07:47:25.181Z,12.80
2023-03-28T07:49:57.885Z,9.20
2023-03-28T07:52:31.460Z,11.70
2023-03-28T07:55:04.095Z,15.30
2023-03-28T07:57:40.028Z,8.70
2023-03-28T08:00:25.477Z,5.00
2023-03-28T08:03:19.073Z,5.90
2023-03-28T08:05:52.765Z,5.50
2023-03-28T08:08:26.617Z,4.30
2023-03-28T08:13:45.035Z,8.10
2023-03-28T08:16:24.195Z,6.10
2023-03-28T08:19:10.055Z,9.20
2023-03-28T08:21:50.342Z,6.00
2023-03-28T08:24:34.800Z,5.70
2023-03-28T08:27:15.098Z,7.60
2023-03-28T08:29:49.288Z,3.60
2023-03-28T08:32:22.243Z,6.60
2023-03-28T08:34:55.663Z,5.50
2023-03-28T08:37:28.115Z,3.20
2023-03-28T08:40:01.818Z,4.00
2023-03-28T08:42:58.145Z,6.00
2023-03-28T08:45:47.882Z,4.70
2023-03-28T08:48:27.168Z,6.10
2023-03-28T08:51:04.585Z,6.30
2023-03-28T08:53:43.999Z,5.40
2023-03-28T08:56:17.631Z,4.20
2023-03-28T08:58:59.723Z,2.40
2023-03-28T09:01:34.192Z,2.20
2023-03-28T09:04:07.607Z,4.80
2023-03-28T09:06:45.654Z,8.90
2023-03-28T09:09:38.461Z,8.90
2023-03-28T09:12:41.050Z,14.90
2023-03-28T09:15:31.796Z,41.70
2023-03-28T09:18:22.621Z,13.90
2023-03-28T09:21:01.978Z,10.40
2023-03-28T09:23:55.373Z,21.90
2023-03-28T09:26:49.141Z,17.70
2023-03-28T09:29:27.997Z,4.70
2023-03-28T09:32:04.384Z,8.50
2023-03-28T09:34:46.573Z,10.90
2023-03-28T09:37:36.579Z,8.00
2023-03-28T09:40:20.835Z,16.60
2023-03-28T09:43:20.809Z,11.40
2023-03-28T09:46:19.628Z,2.90
2023-03-28T09:49:05.771Z,21.60
2023-03-28T09:51:41.062Z,6.40
2023-03-28T09:54:14.247Z,12.10
2023-03-28T09:56:47.591Z,3.80
2023-03-28T09:59:32.125Z,8.00
2023-03-28T10:02:30.712Z,7.20
2023-03-28T10:05:22.867Z,4.20
2023-03-28T10:08:07.635Z,16.30
2023-03-28T10:11:02.841Z,9.20
2023-03-28T10:13:41.750Z,15.50
2023-03-28T10:16:18.141Z,5.70
2023-03-28T10:19:25.116Z,8.50
2023-03-28T10:22:08.669Z,9.20
2023-03-28T10:24:46.968Z,21.70
2023-03-28T10:27:25.076Z,22.80
2023-03-28T10:29:59.920Z,24.30
2023-03-28T10:32:36.721Z,13.60
2023-03-28T10:35:31.539Z,16.60
2023-03-28T10:38:18.267Z,12.70
2023-03-28T10:41:20.671Z,14.30
2023-03-28T10:44:33.055Z,4.30
2023-03-28T10:47:16.245Z,11.20
2023-03-28T10:49:56.545Z,5.60
2023-03-28T10:52:38.162Z,8.60
2023-03-28T10:55:17.984Z,8.70
2023-03-28T10:58:17.802Z,9.80
2023-03-28T11:01:02.558Z,20.40
2023-03-28T11:03:58.431Z,28.50
2023-03-28T11:06:37.735Z,23.80
2023-03-28T11:09:21.245Z,20.20
2023-03-28T11:12:32.316Z,24.10
2023-03-28T11:15:17.538Z,19.90
2023-03-28T11:18:04.320Z,16.90
2023-03-28T11:20:46.175Z,20.80
2023-03-28T11:23:41.804Z,27.60
2023-03-28T11:26:42.013Z,9.50
2023-03-28T11:29:53.242Z,9.00
2023-03-28T11:32:31.990Z,5.90
2023-03-28T11:35:14.544Z,3.70
2023-03-28T11:37:57.241Z,5.50
2023-03-28T11:40:36.561Z,4.20
2023-03-28T11:43:16.959Z,10.20
2023-03-28T11:45:55.227Z,4.90
2023-03-28T11:48:31.805Z,24.20
2023-03-28T11:51:13.366Z,14.60
2023-03-28T11:53:56.427Z,10.80
2023-03-28T11:56:50.436Z,9.80
2023-03-28T11:59:49.065Z,6.00
2023-03-28T12:02:38.392Z,18.30
2023-03-28T12:05:22.827Z,7.60
2023-03-28T12:08:04.409Z,5.90
2023-03-28T12:10:38.485Z,3.10
2023-03-28T12:13:22.503Z,5.80
2023-03-28T12:16:10.190Z,15.10
2023-03-28T12:18:47.351Z,10.10
2023-03-28T12:21:43.337Z,8.50
2023-03-28T12:24:26.810Z,8.70
2023-03-28T12:27:17.846Z,5.90
2023-03-28T12:29:59.370Z,8.20
2023-03-28T12:32:44.683Z,3.70
2023-03-28T12:35:25.197Z,3.30
2023-03-28T12:38:24.618Z,7.70
2023-03-28T12:41:07.641Z,10.10
2023-03-28T12:43:47.119Z,14.10
2023-03-28T12:46:28.204Z,6.70
2023-03-28T12:49:06.009Z,4.60
2023-03-28T12:51:43.936Z,7.90
2023-03-28T12:54:30.763Z,14.20
2023-03-28T12:57:18.928Z,34.50
2023-03-28T13:00:20.678Z,32.40
2023-03-28T13:03:27.137Z,17.20
2023-03-28T13:06:06.911Z,3.70
2023-03-28T13:08:51.826Z,3.20
2023-03-28T13:11:31.468Z,3.00
2023-03-28T13:14:21.093Z,3.20
2023-03-28T13:16:59.774Z,3.20
2023-03-28T13:19:51.329Z,3.40
2023-03-28T13:22:32.791Z,4.20
2023-03-28T13:25:27.460Z,2.60
2023-03-28T13:28:01.802Z,3.10
2023-03-28T13:30:34.280Z,2.60
2023-03-28T13:33:26.509Z,2.30
2023-03-28T13:36:22.214Z,3.80
2023-03-28T13:39:07.269Z,2.50
2023-03-28T13:41:59.435Z,4.90
2023-03-28T13:44:46.038Z,7.30
2023-03-28T13:47:25.494Z,8.90
2023-03-28T13:50:04.045Z,7.60
2023-03-28T13:52:36.796Z,8.30
2023-03-28T13:55:20.768Z,10.30
2023-03-28T13:57:53.987Z,16.80
2023-03-28T14:00:29.277Z,23.90
2023-03-28T14:03:05.659Z,24.70
2023-03-28T14:05:46.414Z,16.20
2023-03-28T14:08:26.498Z,17.20
2023-03-28T14:11:00.905Z,6.70
2023-03-28T14:13:33.646Z,5.20
2023-03-28T14:16:11.171Z,5.00
2023-03-28T14:18:48.052Z,2.20
2023-03-28T14:21:24.050Z,3.30
2023-03-28T14:24:01.856Z,30.30
2023-03-28T14:26:38.060Z,3.40
2023-03-28T14:29:14.566Z,9.20
2023-03-28T14:31:48.834Z,10.70
2023-03-28T14:34:25.618Z,2.40
2023-03-28T14:37:03.554Z,4.20
2023-03-28T14:39:39.169Z,6.40
2023-03-28T14:42:17.188Z,7.80
2023-03-28T14:44:54.302Z,5.00
2023-03-28T14:47:32.278Z,5.80
2023-03-28T14:50:05.705Z,8.50
2023-03-28T14:52:41.124Z,6.30
2023-03-28T14:55:19.978Z,7.90
2023-03-28T14:57:54.518Z,10.30
2023-03-28T15:00:34.515Z,6.40
2023-03-28T15:03:13.343Z,19.20
2023-03-28T15:05:48.415Z,12.80
2023-03-28T15:08:28.404Z,19.20
2023-03-28T15:11:03.698Z,13.70
2023-03-28T15:16:16.861Z,16.60
2023-03-28T15:18:56.875Z,16.90
2023-03-28T15:21:29.352Z,14.50
2023-03-28T15:24:04.239Z,3.00
2023-03-28T15:29:10.297Z,3.50
2023-03-28T15:31:43.142Z,2.90
2023-03-28T15:34:23.491Z,3.30
2023-03-28T15:37:02.211Z,18.60
2023-03-28T15:39:37.165Z,12.10
2023-03-28T15:45:25.089Z,75.90
2023-03-28T15:47:58.061Z,21.50
2023-03-28T15:50:36.502Z,25.40
2023-03-28T15:53:14.560Z,7.10
2023-03-28T15:55:48.791Z,12.10
2023-03-28T15:58:23.487Z,19.10
2023-03-28T16:00:56.491Z,20.00
2023-03-28T16:03:34.718Z,35.20
2023-03-28T16:06:32.225Z,20.90
2023-03-28T16:09:19.412Z,17.90
2023-03-28T16:11:56.488Z,19.70
2023-03-28T16:14:49.901Z,33.30
2023-03-28T16:17:47.402Z,21.20
2023-03-28T16:20:31.895Z,24.50
2023-03-28T16:23:09.612Z,25.60
2023-03-28T16:25:42.133Z,17.00
2023-03-28T16:28:19.363Z,39.90
2023-03-28T16:30:53.141Z,19.40
2023-03-28T16:33:26.012Z,26.60
2023-03-28T16:35:59.012Z,69.90
2023-03-28T16:38:31.595Z,45.40
2023-03-28T16:41:04.227Z,74.50
2023-03-28T16:43:37.893Z,48.80
2023-03-28T16:46:12.359Z,66.90
2023-03-28T16:48:45.260Z,43.20
2023-03-28T16:51:17.713Z,45.10
2023-03-28T16:53:50.130Z,46.50
2023-03-28T16:56:26.979Z,40.70
2023-03-28T16:58:59.290Z,40.40
2023-03-28T17:01:31.716Z,46.90
2023-03-28T17:04:04.638Z,60.30
2023-03-28T17:06:37.084Z,50.40
2023-03-28T17:09:09.979Z,61.90
2023-03-28T17:11:43.002Z,45.20
2023-03-28T17:14:15.797Z,22.40
2023-03-28T17:16:48.210Z,32.20
2023-03-28T17:19:23.227Z,23.50
2023-03-28T17:21:56.630Z,22.60
2023-03-28T17:24:30.089Z,21.00
2023-03-28T17:27:02.439Z,18.50
2023-03-28T17:29:34.810Z,18.10
2023-03-28T17:32:08.304Z,21.60
2023-03-28T17:34:40.984Z,20.40
2023-03-28T17:37:13.343Z,26.60
2023-03-28T17:39:46.706Z,20.90
2023-03-28T17:42:19.261Z,19.00
2023-03-28T17:44:54.651Z,17.20
2023-03-28T17:47:27.088Z,11.10
2023-03-28T17:50:00.627Z,14.00
2023-03-28T17:52:33.206Z,17.90
2023-03-28T17:55:06.972Z,15.60
2023-03-28T17:57:39.473Z,20.10
2023-03-28T18:00:14.117Z,33.10
2023-03-28T18:02:48.449Z,14.90
2023-03-28T18:05:30.867Z,14.90
2023-03-28T18:08:04.385Z,7.80
2023-03-28T18:10:39.456Z,6.30
2023-03-28T18:13:11.971Z,3.00
2023-03-28T18:15:44.571Z,4.20
2023-03-28T18:18:17.541Z,5.40
2023-03-28T18:20:51.074Z,6.50
2023-03-28T18:23:23.423Z,9.70
2023-03-28T18:25:55.727Z,9.90
2023-03-28T18:28:28.248Z,15.50
2023-03-28T18:31:09.984Z,30.70
2023-03-28T18:33:44.159Z,12.50
2023-03-28T18:36:16.735Z,12.40
2023-03-28T18:38:50.041Z,27.50
2023-03-28T18:41:22.433Z,36.50
2023-03-28T18:43:54.849Z,26.20
2023-03-28T18:46:29.941Z,54.20
2023-03-28T18:49:03.002Z,33.30
2023-03-28T18:51:36.700Z,23.90
2023-03-28T18:54:09.227Z,13.50
2023-03-28T18:56:41.577Z,7.60
2023-03-28T18:59:15.193Z,4.70
2023-03-28T19:01:51.604Z,3.80
2023-03-28T19:04:27.941Z,3.80
2023-03-28T19:07:00.409Z,5.00
2023-03-28T19:09:32.932Z,5.60
2023-03-28T19:12:05.297Z,7.50
2023-03-28T19:14:37.598Z,10.70
2023-03-28T19:17:09.891Z,23.20
2023-03-28T19:19:42.187Z,21.80
2023-03-28T19:22:14.450Z,20.40
2023-03-28T19:24:46.749Z,41.60
2023-03-28T19:27:19.142Z,249.40
2023-03-28T19:29:51.493Z,452.00
2023-03-28T19:32:24.696Z,320.30
2023-03-28T19:34:57.359Z,227.40
2023-03-28T19:37:29.691Z,132.10
2023-03-28T19:40:05.655Z,90.60
2023-03-28T19:42:38.304Z,133.50
2023-03-28T19:45:12.855Z,167.20
2023-03-28T19:47:45.238Z,160.30
2023-03-28T19:50:17.880Z,180.80
2023-03-28T19:52:50.367Z,90.10
2023-03-28T19:55:22.807Z,54.40
2023-03-28T19:57:57.068Z,23.60
2023-03-28T20:00:29.458Z,17.20
2023-03-28T20:03:03.051Z,20.90
2023-03-28T20:05:44.681Z,22.30
2023-03-28T20:08:18.943Z,23.50
2023-03-28T20:11:58.612Z,25.20
2023-03-28T20:14:34.462Z,44.80
2023-03-28T20:17:07.049Z,32.60
2023-03-28T20:19:40.446Z,26.70
2023-03-28T20:22:12.739Z,29.20
2023-03-28T20:24:45.026Z,27.80
2023-03-28T20:27:18.170Z,25.40
2023-03-28T20:29:50.533Z,27.30
2023-03-28T20:32:22.937Z,26.10
2023-03-28T20:34:55.317Z,16.70
2023-03-28T20:37:28.533Z,22.80
2023-03-28T20:40:10.341Z,20.00
2023-03-28T20:42:42.777Z,15.40
2023-03-28T20:45:22.137Z,12.50
2023-03-28T20:47:57.078Z,11.30
2023-03-28T20:50:34.120Z,11.90
2023-03-28T20:53:08.034Z,17.80
2023-03-28T20:55:40.534Z,14.10
2023-03-28T20:58:12.836Z,16.10
2023-03-28T21:00:46.592Z,17.80
2023-03-28T21:03:19.180Z,30.80
2023-03-28T21:05:53.253Z,27.20
2023-03-28T21:08:28.025Z,18.60
2023-03-28T21:11:00.578Z,24.30
2023-03-28T21:13:33.135Z,30.90
2023-03-28T21:16:05.917Z,15.30
2023-03-28T21:18:38.401Z,33.40
2023-03-28T21:21:12.726Z,23.20
2023-03-28T21:23:46.796Z,9.80
2023-03-28T21:26:21.247Z,23.00
2023-03-28T21:28:54.751Z,61.90
2023-03-28T21:31:29.290Z,34.90
2023-03-28T21:34:02.216Z,19.70
2023-03-28T21:36:34.837Z,23.70
2023-03-28T21:39:07.956Z,88.70
2023-03-28T21:41:40.296Z,35.10
2023-03-28T21:44:12.597Z,13.20
2023-03-28T21:46:44.934Z,25.20
2023-03-28T21:49:18.252Z,37.90
2023-03-28T21:51:50.620Z,69.70
2023-03-28T21:54:23.263Z,59.70
2023-03-28T21:56:55.859Z,112.00
2023-03-28T21:59:28.335Z,96.10
2023-03-28T22:02:01.062Z,46.60
2023-03-28T22:04:33.648Z,23.90
2023-03-28T22:07:06.338Z,30.30
2023-03-28T22:09:39.346Z,54.50
2023-03-28T22:12:11.738Z,159.10
2023-03-28T22:14:44.077Z,15.30
2023-03-28T22:17:16.389Z,11.60
2023-03-28T22:19:50.113Z,17.80
2023-03-28T22:22:28.250Z,8.20
2023-03-28T22:25:00.646Z,12.30
2023-03-28T22:27:34.977Z,11.30
2023-03-28T22:30:11.761Z,81.30
2023-03-28T22:32:44.291Z,20.10
2023-03-28T22:35:16.773Z,20.20
2023-03-28T22:37:49.066Z,69.80
2023-03-28T22:40:22.260Z,21.10
2023-03-28T22:42:55.049Z,17.60
2023-03-28T22:45:27.726Z,11.80
2023-03-28T22:48:03.284Z,8.50
2023-03-28T22:50:35.626Z,13.00
2023-03-28T22:53:08.212Z,11.70
2023-03-28T22:55:41.874Z,9.60
2023-03-28T22:58:15.130Z,8.00
2023-03-28T23:00:47.638Z,10.60
2023-03-28T23:03:20.045Z,16.80
2023-03-28T23:05:55.233Z,21.80
2023-03-28T23:08:28.356Z,11.30
2023-03-28T23:11:00.961Z,20.60
2023-03-28T23:13:33.519Z,8.70
2023-03-28T23:16:07.297Z,27.60
2023-03-28T23:18:39.674Z,15.70
2023-03-28T23:21:12.152Z,11.40
2023-03-28T23:23:46.511Z,17.00
2023-03-28T23:26:19.080Z,14.30
2023-03-28T23:28:51.705Z,19.40
2023-03-28T23:31:24.087Z,10.40
2023-03-28T23:33:56.462Z,15.50
2023-03-28T23:36:30.209Z,13.90
2023-03-28T23:39:02.813Z,16.30
2023-03-28T23:41:35.283Z,10.30
2023-03-28T23:44:07.930Z,8.80
2023-03-28T23:46:40.658Z,8.90
2023-03-28T23:49:12.906Z,11.60
2023-03-28T23:51:46.215Z,9.60
2023-03-28T23:54:18.794Z,8.80
2023-03-28T23:56:51.659Z,8.20
2023-03-28T23:59:25.287Z,9.20
